createdAt,value
2023-05-10T00:02:16.474Z,11.51
2023-05-10T00:07:16.306Z,11.37
2023-05-10T00:12:16.234Z,11.26
2023-05-10T00:17:16.169Z,11.25
2023-05-10T00:22:16.102Z,11.25
2023-05-10T00:27:16.036Z,11.18
2023-05-10T00:32:16.040Z,11.25
2023-05-10T00:37:15.906Z,11.26
2023-05-10T00:42:15.827Z,11.25
2023-05-10T00:47:15.829Z,11.16
2023-05-10T00:52:15.700Z,11.13
2023-05-10T00:57:15.643Z,11.13
2023-05-10T01:02:15.613Z,11.14
2023-05-10T01:07:15.505Z,11.11
2023-05-10T01:12:15.474Z,11.17
2023-05-10T01:17:15.376Z,11.27
2023-05-10T01:22:15.305Z,11.32
2023-05-10T01:27:15.244Z,11.44
2023-05-10T01:32:15.168Z,11.52
2023-05-10T01:37:15.110Z,11.54
2023-05-10T01:42:15.035Z,11.57
2023-05-10T01:47:14.972Z,11.60
2023-05-10T01:52:14.930Z,11.63
2023-05-10T01:57:14.837Z,11.60
2023-05-10T02:02:14.763Z,11.57
2023-05-10T02:07:14.705Z,11.63
2023-05-10T02:12:14.634Z,11.63
2023-05-10T02:17:14.577Z,11.66
2023-05-10T02:22:14.496Z,11.75
2023-05-10T02:27:14.440Z,11.81
2023-05-10T02:32:14.436Z,11.91
2023-05-10T02:37:14.312Z,11.98
2023-05-10T02:42:14.233Z,12.03
2023-05-10T02:47:14.178Z,12.09
2023-05-10T02:52:14.109Z,12.12
2023-05-10T02:57:14.052Z,12.09
2023-05-10T03:02:13.971Z,12.01
2023-05-10T03:07:13.902Z,11.98
2023-05-10T03:12:13.846Z,11.98
2023-05-10T03:17:13.770Z,12.03
2023-05-10T03:22:13.717Z,12.05
2023-05-10T03:27:13.643Z,12.09
2023-05-10T03:32:13.578Z,12.24
2023-05-10T03:37:13.518Z,12.39
2023-05-10T03:42:13.460Z,12.54
2023-05-10T03:47:13.368Z,12.60
2023-05-10T03:52:13.296Z,12.82
2023-05-10T03:57:13.234Z,12.95
2023-05-10T04:02:13.206Z,13.25
2023-05-10T04:07:13.113Z,13.62
2023-05-10T04:12:13.032Z,13.96
2023-05-10T04:17:13.103Z,14.18
2023-05-10T04:22:12.899Z,14.03
2023-05-10T04:27:12.841Z,14.18
2023-05-10T04:32:12.776Z,14.36
2023-05-10T04:37:12.707Z,14.18
2023-05-10T04:42:12.625Z,14.08
2023-05-10T04:47:12.781Z,14.04
2023-05-10T04:52:12.487Z,13.98
2023-05-10T04:57:12.426Z,13.98
2023-05-10T05:02:12.365Z,14.08
2023-05-10T05:07:12.292Z,14.22
2023-05-10T05:12:12.219Z,14.36
2023-05-10T05:17:12.157Z,14.54
2023-05-10T05:22:12.104Z,14.69
2023-05-10T05:27:12.045Z,14.80
2023-05-10T05:32:11.970Z,14.87
2023-05-10T05:37:11.893Z,14.93
2023-05-10T05:42:11.810Z,14.96
2023-05-10T05:47:11.755Z,14.98
2023-05-10T05:52:11.678Z,15.17
2023-05-10T05:57:11.622Z,15.51
2023-05-10T06:02:11.621Z,15.72
2023-05-10T06:07:11.523Z,15.70
2023-05-10T06:12:11.415Z,15.67
2023-05-10T06:17:11.363Z,15.52
2023-05-10T06:22:11.294Z,15.43
2023-05-10T06:27:11.229Z,15.39
2023-05-10T06:32:11.180Z,15.23
2023-05-10T06:37:11.106Z,15.09
2023-05-10T06:42:11.031Z,15.01
2023-05-10T06:47:10.961Z,14.93
2023-05-10T06:52:10.903Z,14.84
2023-05-10T06:57:23.306Z,14.76
2023-05-10T07:02:11.935Z,14.65
2023-05-10T07:07:10.718Z,14.65
2023-05-10T07:12:12.142Z,14.60
2023-05-10T07:17:10.662Z,14.62
2023-05-10T07:22:10.503Z,14.68
2023-05-10T07:27:10.444Z,14.83
2023-05-10T07:32:10.433Z,14.90
2023-05-10T07:37:10.309Z,14.99
2023-05-10T07:42:10.267Z,15.10
2023-05-10T07:47:10.184Z,15.17
2023-05-10T07:52:10.128Z,15.24
2023-05-10T07:57:10.046Z,15.43
2023-05-10T08:02:09.995Z,15.75
2023-05-10T08:07:09.946Z,15.94
2023-05-10T08:12:09.859Z,15.84
2023-05-10T08:17:09.786Z,15.77
2023-05-10T08:22:09.722Z,15.68
2023-05-10T08:27:09.653Z,15.75
2023-05-10T08:32:09.592Z,15.76
2023-05-10T08:37:09.581Z,15.73
2023-05-10T08:42:09.474Z,15.70
2023-05-10T08:47:09.450Z,15.72
2023-05-10T08:52:09.340Z,15.88
2023-05-10T08:57:09.262Z,15.97
2023-05-10T09:02:09.181Z,15.97
2023-05-10T09:07:09.120Z,16.01
2023-05-10T09:12:09.048Z,16.08
2023-05-10T09:17:09.039Z,16.25
2023-05-10T09:22:08.910Z,16.48
2023-05-10T09:27:08.848Z,16.56
2023-05-10T09:32:08.779Z,16.65
2023-05-10T09:37:08.720Z,16.74
2023-05-10T09:42:08.658Z,16.90
2023-05-10T09:47:08.586Z,16.97
2023-05-10T09:52:08.519Z,17.08
2023-05-10T09:57:08.438Z,17.09
2023-05-10T10:02:08.371Z,17.12
2023-05-10T10:07:08.302Z,17.15
2023-05-10T10:12:08.231Z,17.14
2023-05-10T10:17:09.117Z,17.20
2023-05-10T10:22:08.088Z,17.23
2023-05-10T10:27:08.042Z,17.41
2023-05-10T10:32:07.957Z,17.59
2023-05-10T10:37:07.897Z,17.69
2023-05-10T10:42:07.824Z,17.64
2023-05-10T10:47:07.879Z,17.62
2023-05-10T10:52:07.690Z,17.77
2023-05-10T10:57:07.643Z,17.85
2023-05-10T11:02:07.559Z,18.06
2023-05-10T11:07:07.503Z,18.22
2023-05-10T11:12:07.447Z,18.47
2023-05-10T11:17:07.495Z,18.40
2023-05-10T11:22:07.305Z,18.25
2023-05-10T11:27:07.252Z,18.17
2023-05-10T11:32:07.158Z,17.79
2023-05-10T11:37:07.115Z,17.49
2023-05-10T11:42:07.022Z,17.30
2023-05-10T11:47:07.001Z,17.20
2023-05-10T11:52:06.891Z,17.23
2023-05-10T11:57:06.854Z,17.27
2023-05-10T12:02:06.753Z,17.42
2023-05-10T12:07:06.708Z,17.69
2023-05-10T12:12:06.629Z,17.89
2023-05-10T12:17:06.583Z,18.03
2023-05-10T12:22:06.502Z,18.12
2023-05-10T12:27:06.426Z,18.17
2023-05-10T12:32:06.381Z,18.15
2023-05-10T12:37:06.292Z,18.10
2023-05-10T12:42:06.221Z,17.96
2023-05-10T12:47:06.185Z,17.96
2023-05-10T12:52:06.085Z,17.86
2023-05-10T12:57:06.042Z,17.82
2023-05-10T13:02:05.976Z,17.84
2023-05-10T13:07:05.903Z,17.84
2023-05-10T13:12:07.643Z,17.99
2023-05-10T13:17:05.821Z,18.04
2023-05-10T13:22:05.697Z,17.99
2023-05-10T13:27:05.629Z,18.00
2023-05-10T13:32:05.549Z,18.17
2023-05-10T13:37:05.487Z,18.24
2023-05-10T13:42:05.414Z,18.22
2023-05-10T13:47:05.389Z,18.10
2023-05-10T13:52:05.275Z,17.97
2023-05-10T13:57:05.220Z,17.85
2023-05-10T14:02:05.310Z,17.84
2023-05-10T14:07:05.089Z,17.84
2023-05-10T14:12:05.023Z,17.51
2023-05-10T14:17:04.967Z,17.23
2023-05-10T14:22:04.873Z,17.06
2023-05-10T14:27:04.827Z,17.19
2023-05-10T14:32:04.793Z,17.22
2023-05-10T14:37:04.689Z,17.26
2023-05-10T14:42:04.642Z,17.29
2023-05-10T14:47:04.556Z,17.22
2023-05-10T14:52:04.466Z,17.15
2023-05-10T14:57:04.403Z,17.11
2023-05-10T15:02:04.330Z,16.75
2023-05-10T15:07:04.269Z,16.41
2023-05-10T15:12:04.200Z,16.16
2023-05-10T15:17:04.136Z,16.02
2023-05-10T15:22:04.073Z,16.00
2023-05-10T15:27:04.014Z,16.12
2023-05-10T15:32:03.950Z,16.00
2023-05-10T15:37:03.907Z,15.90
2023-05-10T15:42:03.800Z,16.01
2023-05-10T15:47:03.855Z,16.09
2023-05-10T15:52:03.663Z,16.15
2023-05-10T15:57:03.630Z,16.12
2023-05-10T16:02:03.595Z,16.28
2023-05-10T16:07:03.487Z,16.35
2023-05-10T16:12:03.415Z,16.31
2023-05-10T16:17:03.460Z,16.17
2023-05-10T16:22:03.286Z,16.10
2023-05-10T16:27:03.222Z,16.19
2023-05-10T16:32:03.151Z,16.27
2023-05-10T16:37:03.088Z,16.32
2023-05-10T16:42:03.011Z,16.46
2023-05-10T16:47:02.955Z,16.55
2023-05-10T16:52:02.882Z,16.64
2023-05-10T16:57:02.815Z,16.71
2023-05-10T17:02:02.765Z,16.70
2023-05-10T17:07:02.685Z,16.71
2023-05-10T17:12:02.613Z,16.65
2023-05-10T17:17:02.638Z,16.64
2023-05-10T17:22:02.476Z,16.52
2023-05-10T17:27:02.419Z,16.46
2023-05-10T17:32:02.390Z,16.40
2023-05-10T17:37:02.288Z,16.40
2023-05-10T17:42:02.219Z,16.28
2023-05-10T17:47:02.156Z,16.23
2023-05-10T17:52:02.084Z,16.19
2023-05-10T17:57:02.025Z,16.15
2023-05-10T18:02:01.986Z,16.13
2023-05-10T18:07:01.980Z,16.04
2023-05-10T18:12:01.813Z,15.95
2023-05-10T18:17:01.772Z,15.90
2023-05-10T18:22:01.673Z,15.88
2023-05-10T18:27:01.608Z,15.80
2023-05-10T18:32:01.560Z,15.76
2023-05-10T18:37:01.485Z,15.75
2023-05-10T18:42:01.395Z,15.72
2023-05-10T18:47:01.347Z,15.72
2023-05-10T18:52:01.274Z,15.68
2023-05-10T18:57:01.203Z,15.67
2023-05-10T19:02:01.245Z,15.65
2023-05-10T19:07:01.060Z,15.64
2023-05-10T19:12:01.000Z,15.59
2023-05-10T19:17:01.363Z,15.58
2023-05-10T19:22:01.467Z,15.57
2023-05-10T19:27:00.807Z,15.54
2023-05-10T19:32:00.943Z,15.51
2023-05-10T19:37:00.669Z,15.49
2023-05-10T19:42:00.626Z,15.45
2023-05-10T19:47:00.559Z,15.45
2023-05-10T19:52:00.481Z,15.42
2023-05-10T19:57:00.393Z,15.39
2023-05-10T20:02:00.327Z,15.36
2023-05-10T20:07:00.260Z,15.32
2023-05-10T20:12:00.188Z,15.26
2023-05-10T20:17:00.214Z,15.23
2023-05-10T20:22:00.071Z,15.21
2023-05-10T20:27:00.048Z,15.20
2023-05-10T20:31:59.969Z,15.14
2023-05-10T20:36:59.848Z,15.05
2023-05-10T20:41:59.765Z,15.02
2023-05-10T20:46:59.706Z,14.98
2023-05-10T20:51:59.629Z,14.90
2023-05-10T20:56:59.572Z,14.84
2023-05-10T21:02:00.120Z,14.77
2023-05-10T21:06:59.433Z,14.68
2023-05-10T21:11:59.371Z,14.60
2023-05-10T21:16:59.293Z,14.55
2023-05-10T21:21:59.229Z,14.53
2023-05-10T21:26:59.168Z,14.50
2023-05-10T21:31:59.134Z,14.45
2023-05-10T21:36:59.033Z,14.44
2023-05-10T21:41:58.952Z,14.41
2023-05-10T21:46:58.913Z,14.40
2023-05-10T21:51:58.823Z,14.36
2023-05-10T21:56:58.774Z,14.35
2023-05-10T22:01:58.709Z,14.30
2023-05-10T22:06:58.633Z,14.28
2023-05-10T22:11:58.550Z,14.26
2023-05-10T22:16:58.498Z,14.25
2023-05-10T22:21:58.408Z,14.20
2023-05-10T22:26:58.354Z,14.18
2023-05-10T22:31:58.284Z,14.15
2023-05-10T22:36:58.228Z,14.18
2023-05-10T22:41:58.150Z,14.18
2023-05-10T22:46:58.207Z,14.12
2023-05-10T22:51:58.016Z,14.10
2023-05-10T22:56:57.972Z,14.08
2023-05-10T23:01:57.905Z,14.08
2023-05-10T23:06:57.841Z,14.10
2023-05-10T23:11:57.767Z,14.10
2023-05-10T23:16:57.705Z,14.10
2023-05-10T23:21:57.624Z,14.10
2023-05-10T23:26:57.573Z,14.10
2023-05-10T23:31:57.543Z,14.07
2023-05-10T23:36:57.438Z,14.07
2023-05-10T23:41:57.365Z,14.04
2023-05-10T23:46:57.307Z,14.02
2023-05-10T23:51:57.234Z,13.99
2023-05-10T23:56:57.178Z,13.99
